createdAt,value
2022-12-31T00:02:52.622Z,68.00
2022-12-31T00:05:54.588Z,62.00
2022-12-31T00:08:58.650Z,65.30
2022-12-31T00:12:00.274Z,68.10
2022-12-31T00:15:01.977Z,64.20
2022-12-31T00:18:03.570Z,59.90
2022-12-31T00:21:10.083Z,54.30
2022-12-31T00:24:11.950Z,52.60
2022-12-31T00:30:15.668Z,35.00
2022-12-31T00:33:17.329Z,44.20
2022-12-31T00:39:20.795Z,42.70
2022-12-31T00:42:22.472Z,44.10
2022-12-31T00:45:23.991Z,42.10
2022-12-31T00:48:26.126Z,41.60
2022-12-31T00:51:27.990Z,41.40
2022-12-31T00:54:29.762Z,39.30
2022-12-31T01:00:33.033Z,35.20
2022-12-31T01:03:34.865Z,36.30
2022-12-31T01:06:37.075Z,37.10
2022-12-31T01:09:38.941Z,36.00
2022-12-31T01:12:40.548Z,34.50
2022-12-31T01:15:42.310Z,33.10
2022-12-31T01:18:44.370Z,34.40
2022-12-31T01:21:48.888Z,31.90
2022-12-31T01:24:50.788Z,29.10
2022-12-31T01:27:52.795Z,33.00
2022-12-31T01:30:55.169Z,37.80
2022-12-31T01:33:58.043Z,38.20
2022-12-31T01:36:59.737Z,35.50
2022-12-31T01:43:03.445Z,33.00
2022-12-31T01:46:05.752Z,29.30
2022-12-31T01:49:37.110Z,34.00
2022-12-31T01:52:41.874Z,30.50
2022-12-31T01:55:46.601Z,29.20
2022-12-31T01:58:50.146Z,27.80
2022-12-31T02:01:51.974Z,24.70
2022-12-31T02:04:55.810Z,26.60
2022-12-31T02:07:57.637Z,23.00
2022-12-31T02:10:59.306Z,24.20
2022-12-31T02:14:10.366Z,22.10
2022-12-31T02:17:31.647Z,25.60
2022-12-31T02:20:51.138Z,20.10
2022-12-31T02:24:26.857Z,21.20
2022-12-31T02:27:51.834Z,20.80
2022-12-31T02:31:01.968Z,33.60
2022-12-31T02:34:41.731Z,30.20
2022-12-31T02:37:45.778Z,27.80
2022-12-31T02:40:47.470Z,25.60
2022-12-31T02:43:49.105Z,22.70
2022-12-31T02:46:59.979Z,29.60
2022-12-31T02:50:20.630Z,24.70
2022-12-31T02:53:35.055Z,21.10
2022-12-31T02:56:51.521Z,22.70
2022-12-31T02:59:55.324Z,20.10
2022-12-31T03:02:58.168Z,19.30
2022-12-31T03:06:02.258Z,20.70
2022-12-31T03:09:03.907Z,18.90
2022-12-31T03:12:08.141Z,22.30
2022-12-31T03:15:11.243Z,20.90
2022-12-31T03:18:15.721Z,23.50
2022-12-31T03:21:17.263Z,24.90
2022-12-31T03:24:18.902Z,29.10
2022-12-31T03:27:20.473Z,31.40
2022-12-31T03:30:23.424Z,26.20
2022-12-31T03:33:26.054Z,24.70
2022-12-31T03:36:27.731Z,25.70
2022-12-31T03:39:32.483Z,23.50
2022-12-31T03:45:36.390Z,25.60
2022-12-31T03:48:38.103Z,24.70
2022-12-31T03:51:39.698Z,23.90
2022-12-31T03:54:42.157Z,25.20
2022-12-31T03:57:43.791Z,26.00
2022-12-31T04:00:45.461Z,28.00
2022-12-31T04:03:47.061Z,26.20
2022-12-31T04:06:48.757Z,28.50
2022-12-31T04:09:50.407Z,33.90
2022-12-31T04:12:52.079Z,38.10
2022-12-31T04:15:53.767Z,40.90
2022-12-31T04:18:55.374Z,39.30
2022-12-31T04:24:58.673Z,34.80
2022-12-31T04:31:02.109Z,34.90
2022-12-31T04:37:05.588Z,36.90
2022-12-31T04:40:07.968Z,33.40
2022-12-31T04:43:09.600Z,35.30
2022-12-31T04:46:11.658Z,33.40
2022-12-31T04:49:13.407Z,37.10
2022-12-31T04:55:16.592Z,32.90
2022-12-31T04:58:18.400Z,33.80
2022-12-31T05:07:23.691Z,35.00
2022-12-31T05:10:25.415Z,35.50
2022-12-31T05:13:32.877Z,41.60
2022-12-31T05:16:35.401Z,44.50
2022-12-31T05:22:38.679Z,38.80
2022-12-31T05:25:41.756Z,41.40
2022-12-31T05:28:43.628Z,40.90
2022-12-31T05:34:46.958Z,39.60
2022-12-31T05:37:48.698Z,39.20
2022-12-31T05:40:58.961Z,34.50
2022-12-31T05:44:00.545Z,31.10
2022-12-31T05:47:02.127Z,31.70
2022-12-31T05:50:04.036Z,28.20
2022-12-31T05:56:07.178Z,33.40
2022-12-31T05:59:08.829Z,34.90
2022-12-31T06:02:10.490Z,37.10
2022-12-31T06:05:12.381Z,34.10
2022-12-31T06:11:15.647Z,34.50
2022-12-31T06:14:17.467Z,38.40
2022-12-31T06:20:20.579Z,34.50
2022-12-31T06:23:22.259Z,35.50
2022-12-31T06:26:23.928Z,36.90
2022-12-31T06:32:27.290Z,43.90
2022-12-31T06:35:28.921Z,40.60
2022-12-31T06:38:32.532Z,45.30
2022-12-31T06:41:34.194Z,46.10
2022-12-31T06:44:35.739Z,46.40
2022-12-31T06:47:37.252Z,46.70
2022-12-31T06:50:39.271Z,47.70
2022-12-31T06:53:41.085Z,48.70
2022-12-31T06:59:44.704Z,48.60
2022-12-31T07:03:01.865Z,49.70
2022-12-31T07:06:16.736Z,46.40
2022-12-31T07:09:38.057Z,74.30
2022-12-31T07:13:11.671Z,66.40
2022-12-31T07:16:41.251Z,51.70
2022-12-31T07:20:16.739Z,57.00
2022-12-31T07:23:18.715Z,45.30
2022-12-31T07:26:57.771Z,46.20
2022-12-31T07:30:02.772Z,43.80
2022-12-31T07:33:08.466Z,50.60
2022-12-31T07:36:37.272Z,52.00
2022-12-31T07:39:58.780Z,52.90
2022-12-31T07:43:36.679Z,53.00
2022-12-31T07:46:53.195Z,51.20
2022-12-31T07:49:55.603Z,53.50
2022-12-31T07:52:57.548Z,52.80
2022-12-31T07:56:00.968Z,50.30
2022-12-31T07:59:08.389Z,51.40
2022-12-31T08:02:39.262Z,51.60
2022-12-31T08:05:50.744Z,52.10
2022-12-31T08:08:55.567Z,51.60
2022-12-31T08:11:59.553Z,53.80
2022-12-31T08:15:01.846Z,50.90
2022-12-31T08:18:03.945Z,53.70
2022-12-31T08:21:14.222Z,54.40
2022-12-31T08:24:40.304Z,50.40
2022-12-31T08:28:16.404Z,49.20
2022-12-31T08:31:20.727Z,47.40
2022-12-31T08:34:28.501Z,51.20
2022-12-31T08:37:40.292Z,48.50
2022-12-31T08:40:52.210Z,45.40
2022-12-31T08:43:59.749Z,45.70
2022-12-31T08:47:16.801Z,45.80
2022-12-31T08:50:19.739Z,45.90
2022-12-31T08:53:21.819Z,45.40
2022-12-31T08:56:30.011Z,40.60
2022-12-31T08:59:47.077Z,41.50
2022-12-31T09:03:00.656Z,40.50
2022-12-31T09:06:27.526Z,41.40
2022-12-31T09:09:44.639Z,42.20
2022-12-31T09:13:22.932Z,38.60
2022-12-31T09:16:36.714Z,37.90
2022-12-31T09:19:38.636Z,39.30
2022-12-31T09:22:40.663Z,35.80
2022-12-31T09:26:17.855Z,36.50
2022-12-31T09:29:42.003Z,37.60
2022-12-31T09:32:50.325Z,39.70
2022-12-31T09:35:57.100Z,38.50
2022-12-31T09:39:23.293Z,39.10
2022-12-31T09:42:57.457Z,36.90
2022-12-31T09:46:47.321Z,36.00
2022-12-31T09:50:00.953Z,35.80
2022-12-31T09:53:30.093Z,33.60
2022-12-31T09:57:05.874Z,34.40
2022-12-31T10:00:39.508Z,33.30
2022-12-31T10:03:50.149Z,33.40
2022-12-31T10:07:10.905Z,30.50
2022-12-31T10:10:24.585Z,31.40
2022-12-31T10:13:55.541Z,31.00
2022-12-31T10:17:02.181Z,28.60
2022-12-31T10:20:41.601Z,17.00
2022-12-31T10:24:12.191Z,8.70
2022-12-31T10:27:16.862Z,5.60
2022-12-31T10:30:19.951Z,4.50
2022-12-31T10:33:45.118Z,4.40
2022-12-31T10:36:55.907Z,3.90
2022-12-31T10:40:12.059Z,4.20
2022-12-31T10:43:41.751Z,4.60
2022-12-31T10:47:14.766Z,4.50
2022-12-31T10:50:35.342Z,4.50
2022-12-31T10:53:55.952Z,4.30
2022-12-31T10:57:23.121Z,4.20
2022-12-31T11:00:29.827Z,4.20
2022-12-31T11:03:43.854Z,3.90
2022-12-31T11:07:03.213Z,4.10
2022-12-31T11:10:34.261Z,4.30
2022-12-31T11:14:06.994Z,4.00
2022-12-31T11:17:20.688Z,4.60
2022-12-31T11:20:47.711Z,4.20
2022-12-31T11:24:10.252Z,4.60
2022-12-31T11:27:49.462Z,4.30
2022-12-31T11:31:29.043Z,4.10
2022-12-31T11:35:12.317Z,4.30
2022-12-31T11:38:30.786Z,4.40
2022-12-31T11:41:42.403Z,4.80
2022-12-31T11:44:55.567Z,4.40
2022-12-31T11:48:36.263Z,6.20
2022-12-31T11:51:55.910Z,4.30
2022-12-31T11:55:27.732Z,3.80
2022-12-31T11:58:29.834Z,3.70
2022-12-31T12:01:39.669Z,3.40
2022-12-31T12:04:41.647Z,3.40
2022-12-31T12:07:43.378Z,3.70
2022-12-31T12:10:51.223Z,4.30
2022-12-31T12:13:52.916Z,3.90
2022-12-31T12:16:59.141Z,4.40
2022-12-31T12:20:18.856Z,3.80
2022-12-31T12:23:24.624Z,3.90
2022-12-31T12:26:39.797Z,3.60
2022-12-31T12:29:41.367Z,3.60
2022-12-31T12:33:00.529Z,3.50
2022-12-31T12:36:14.639Z,3.50
2022-12-31T12:39:22.342Z,3.50
2022-12-31T12:42:24.226Z,3.40
2022-12-31T12:45:51.632Z,3.80
2022-12-31T12:48:56.357Z,3.60
2022-12-31T12:52:24.213Z,3.50
2022-12-31T12:55:44.377Z,3.60
2022-12-31T12:58:55.424Z,3.90
2022-12-31T13:02:35.927Z,4.00
2022-12-31T13:05:56.250Z,4.30
2022-12-31T13:09:19.912Z,4.10
2022-12-31T13:13:05.303Z,3.80
2022-12-31T13:16:22.402Z,4.30
2022-12-31T13:19:39.045Z,3.70
2022-12-31T13:22:48.275Z,4.20
2022-12-31T13:26:09.195Z,3.90
2022-12-31T13:29:21.162Z,4.30
2022-12-31T13:32:31.300Z,4.60
2022-12-31T13:35:38.392Z,5.60
2022-12-31T13:38:52.082Z,6.30
2022-12-31T13:42:01.439Z,6.30
2022-12-31T13:45:20.902Z,5.70
2022-12-31T13:48:28.063Z,5.50
2022-12-31T13:51:55.310Z,6.00
2022-12-31T13:55:14.263Z,5.60
2022-12-31T13:58:40.163Z,5.10
2022-12-31T14:01:48.989Z,5.20
2022-12-31T14:04:55.031Z,5.50
2022-12-31T14:08:01.965Z,5.30
2022-12-31T14:11:18.557Z,5.30
2022-12-31T14:14:54.437Z,4.90
2022-12-31T14:18:22.845Z,5.20
2022-12-31T14:21:32.988Z,5.80
2022-12-31T14:24:49.287Z,5.90
2022-12-31T14:27:52.501Z,5.70
2022-12-31T14:31:00.583Z,5.90
2022-12-31T14:34:20.963Z,5.90
2022-12-31T14:37:50.382Z,6.70
2022-12-31T14:41:07.477Z,6.60
2022-12-31T14:44:27.409Z,6.00
2022-12-31T14:47:52.219Z,6.00
2022-12-31T14:50:54.052Z,6.80
2022-12-31T14:53:57.301Z,7.50
2022-12-31T14:57:24.317Z,8.20
2022-12-31T15:00:30.541Z,6.20
2022-12-31T15:03:32.159Z,6.70
2022-12-31T15:07:03.068Z,9.60
2022-12-31T15:10:07.786Z,9.70
2022-12-31T15:13:37.655Z,9.20
2022-12-31T15:16:43.797Z,7.20
2022-12-31T15:20:30.946Z,6.30
2022-12-31T15:23:37.392Z,6.80
2022-12-31T15:26:51.402Z,7.20
2022-12-31T15:29:53.147Z,6.30
2022-12-31T15:32:56.696Z,6.60
2022-12-31T15:36:20.622Z,7.50
2022-12-31T15:39:42.188Z,8.30
2022-12-31T15:42:50.685Z,8.10
2022-12-31T15:45:53.902Z,8.40
2022-12-31T15:49:16.088Z,8.30
2022-12-31T15:52:25.541Z,9.10
2022-12-31T15:55:31.975Z,13.80
2022-12-31T15:58:35.571Z,13.40
2022-12-31T16:01:40.742Z,14.20
2022-12-31T16:04:42.614Z,16.40
2022-12-31T16:07:44.467Z,15.70
2022-12-31T16:10:46.609Z,14.90
2022-12-31T16:13:51.450Z,12.70
2022-12-31T16:17:00.760Z,14.20
2022-12-31T16:20:24.226Z,20.20
2022-12-31T16:23:27.024Z,21.40
2022-12-31T16:26:32.815Z,17.20
2022-12-31T16:29:36.523Z,18.20
2022-12-31T16:32:39.276Z,14.60
2022-12-31T16:35:41.137Z,11.70
2022-12-31T16:38:42.747Z,12.30
2022-12-31T16:41:44.356Z,11.40
2022-12-31T16:44:47.751Z,10.30
2022-12-31T16:47:49.528Z,10.60
2022-12-31T16:50:53.631Z,10.00
2022-12-31T16:53:55.306Z,12.40
2022-12-31T16:56:59.047Z,11.10
2022-12-31T17:00:03.881Z,10.30
2022-12-31T17:03:08.535Z,11.10
2022-12-31T17:06:10.204Z,12.30
2022-12-31T17:09:14.715Z,12.30
2022-12-31T17:12:16.839Z,12.60
2022-12-31T17:15:24.412Z,15.50
2022-12-31T17:18:30.596Z,11.70
2022-12-31T17:21:32.961Z,13.00
2022-12-31T17:24:35.486Z,14.30
2022-12-31T17:27:37.113Z,12.80
2022-12-31T17:30:39.518Z,13.90
2022-12-31T17:33:41.272Z,14.80
2022-12-31T17:36:58.307Z,14.50
2022-12-31T17:40:24.510Z,12.60
2022-12-31T17:46:25.081Z,11.00
2022-12-31T17:49:30.257Z,13.40
2022-12-31T17:52:31.870Z,13.10
2022-12-31T17:55:33.508Z,15.10
2022-12-31T17:58:37.712Z,14.20
2022-12-31T18:01:39.354Z,12.40
2022-12-31T18:04:41.020Z,9.90
2022-12-31T18:07:42.550Z,10.10
2022-12-31T18:10:44.751Z,9.10
2022-12-31T18:13:47.034Z,8.70
2022-12-31T18:16:48.572Z,9.10
2022-12-31T18:20:06.503Z,10.10
2022-12-31T18:23:24.034Z,9.50
2022-12-31T18:26:26.232Z,9.30
2022-12-31T18:29:27.806Z,8.70
2022-12-31T18:32:30.935Z,8.90
2022-12-31T18:36:07.247Z,9.40
2022-12-31T18:38:54.798Z,9.90
2022-12-31T18:41:56.377Z,10.00
2022-12-31T18:44:58.273Z,9.20
2022-12-31T18:47:59.926Z,10.30
2022-12-31T18:51:01.521Z,10.80
2022-12-31T18:54:04.217Z,9.70
2022-12-31T18:57:06.074Z,9.90
2022-12-31T19:00:08.454Z,9.30
2022-12-31T19:03:18.855Z,9.00
2022-12-31T19:06:20.568Z,9.20
2022-12-31T19:09:44.745Z,8.90
2022-12-31T19:12:44.735Z,10.50
2022-12-31T19:15:51.830Z,11.30
2022-12-31T19:18:53.481Z,11.50
2022-12-31T19:21:55.524Z,12.90
2022-12-31T19:24:57.231Z,12.00
2022-12-31T19:27:58.941Z,9.80
2022-12-31T19:31:00.502Z,11.50
2022-12-31T19:34:02.403Z,13.00
2022-12-31T19:37:04.083Z,11.40
2022-12-31T19:40:06.476Z,11.70
2022-12-31T19:43:12.426Z,11.00
2022-12-31T19:46:16.059Z,9.40
2022-12-31T19:49:17.771Z,9.70
2022-12-31T19:52:19.594Z,14.60
2022-12-31T19:55:22.072Z,13.70
2022-12-31T19:58:25.292Z,15.40
2022-12-31T20:01:27.035Z,16.40
2022-12-31T20:04:28.821Z,16.40
2022-12-31T20:07:30.453Z,15.70
2022-12-31T20:10:32.265Z,14.80
2022-12-31T20:13:35.278Z,12.90
2022-12-31T20:16:36.947Z,12.70
2022-12-31T20:19:39.042Z,10.80
2022-12-31T20:22:40.832Z,12.00
2022-12-31T20:25:42.646Z,11.60
2022-12-31T20:28:44.528Z,12.40
2022-12-31T20:31:46.741Z,11.50
2022-12-31T20:34:48.421Z,10.50
2022-12-31T20:37:49.922Z,10.00
2022-12-31T20:47:15.118Z,8.80
2022-12-31T20:50:16.893Z,10.50
2022-12-31T20:53:18.434Z,11.70
2022-12-31T20:56:22.643Z,10.80
2022-12-31T20:59:24.254Z,8.60
2022-12-31T21:02:40.346Z,7.90
2022-12-31T21:05:48.192Z,8.20
2022-12-31T21:08:50.049Z,9.90
2022-12-31T21:11:51.613Z,9.00
2022-12-31T21:14:53.189Z,8.10
2022-12-31T21:17:54.839Z,7.10
2022-12-31T21:20:56.526Z,7.00
2022-12-31T21:23:58.171Z,7.40
2022-12-31T21:26:59.817Z,7.00
2022-12-31T21:30:18.109Z,7.20
2022-12-31T21:33:20.525Z,8.60
2022-12-31T21:36:22.340Z,8.60
2022-12-31T21:39:24.168Z,7.70
2022-12-31T21:42:25.867Z,8.90
2022-12-31T21:45:27.512Z,9.10
2022-12-31T21:48:29.343Z,11.70
2022-12-31T21:51:31.118Z,9.90
2022-12-31T21:54:33.502Z,12.40
2022-12-31T21:57:59.082Z,9.70
2022-12-31T22:00:58.751Z,8.50
2022-12-31T22:04:00.427Z,7.40
2022-12-31T22:07:02.139Z,6.60
2022-12-31T22:10:03.912Z,12.50
2022-12-31T22:13:05.775Z,9.00
2022-12-31T22:16:08.048Z,6.60
2022-12-31T22:19:09.824Z,6.00
2022-12-31T22:22:11.388Z,7.50
2022-12-31T22:25:12.961Z,6.70
2022-12-31T22:37:56.775Z,6.50
2022-12-31T22:41:17.274Z,6.40
2022-12-31T22:44:18.834Z,6.80
2022-12-31T22:47:21.044Z,6.10
2022-12-31T22:50:22.600Z,6.60
2022-12-31T22:53:24.194Z,11.20
2022-12-31T22:56:25.927Z,11.10
2022-12-31T22:59:27.585Z,9.80
2022-12-31T23:02:29.324Z,7.90
2022-12-31T23:05:32.379Z,9.60
2022-12-31T23:08:34.116Z,20.10
2022-12-31T23:11:37.479Z,17.50
2022-12-31T23:14:39.115Z,15.50
2022-12-31T23:17:40.825Z,8.20
2022-12-31T23:20:42.453Z,9.60
2022-12-31T23:23:44.269Z,12.00
2022-12-31T23:26:45.981Z,15.00
2022-12-31T23:29:47.935Z,17.30
2022-12-31T23:32:49.757Z,17.40
2022-12-31T23:36:02.216Z,18.90
2022-12-31T23:39:04.080Z,19.10
2022-12-31T23:42:05.828Z,21.90
2022-12-31T23:45:07.654Z,21.70
2022-12-31T23:48:09.310Z,24.70
2022-12-31T23:51:11.102Z,26.40
2022-12-31T23:54:12.850Z,21.90
2022-12-31T23:57:14.610Z,19.10
